createdAt,value
2022-09-15T00:00:28.343Z,8.98
2022-09-15T00:01:00.904Z,10.95
2022-09-15T00:01:32.978Z,10.63
2022-09-15T00:02:04.680Z,10.27
2022-09-15T00:02:36.378Z,9.00
2022-09-15T00:03:07.969Z,10.38
2022-09-15T00:03:40.337Z,10.07
2022-09-15T00:04:12.098Z,11.50
2022-09-15T00:04:43.608Z,11.02
2022-09-15T00:05:15.305Z,10.95
2022-09-15T00:05:47.911Z,10.63
2022-09-15T00:06:20.187Z,10.32
2022-09-15T00:06:53.074Z,10.83
2022-09-15T00:07:24.585Z,13.00
2022-09-15T00:07:56.098Z,11.63
2022-09-15T00:08:27.666Z,11.05
2022-09-15T00:08:59.373Z,12.60
2022-09-15T00:09:31.164Z,11.68
2022-09-15T00:10:05.301Z,11.80
2022-09-15T00:10:36.896Z,10.98
2022-09-15T00:11:17.308Z,10.93
2022-09-15T00:11:48.827Z,9.98
2022-09-15T00:12:20.421Z,11.53
2022-09-15T00:12:51.967Z,11.40
2022-09-15T00:13:23.698Z,9.90
2022-09-15T00:13:56.794Z,12.60
2022-09-15T00:14:28.319Z,10.77
2022-09-15T00:15:00.018Z,11.63
2022-09-15T00:15:31.540Z,10.65
2022-09-15T00:16:04.115Z,9.50
2022-09-15T00:16:35.740Z,10.07
2022-09-15T00:17:07.345Z,11.30
2022-09-15T00:17:38.929Z,9.73
2022-09-15T00:18:10.877Z,10.18
2022-09-15T00:18:43.391Z,10.98
2022-09-15T00:19:15.420Z,12.30
2022-09-15T00:19:47.025Z,11.35
2022-09-15T00:20:20.554Z,11.55
2022-09-15T00:20:52.439Z,11.93
2022-09-15T00:21:27.594Z,13.05
2022-09-15T00:21:59.116Z,10.60
2022-09-15T00:22:30.637Z,11.75
2022-09-15T00:23:02.157Z,9.73
2022-09-15T00:23:34.150Z,10.35
2022-09-15T00:24:06.469Z,11.85
2022-09-15T00:24:38.003Z,11.38
2022-09-15T00:25:09.956Z,13.75
2022-09-15T00:25:45.153Z,11.02
2022-09-15T00:26:20.769Z,12.05
2022-09-15T00:26:52.305Z,12.07
2022-09-15T00:27:23.843Z,11.75
2022-09-15T00:27:55.366Z,11.07
2022-09-15T00:28:26.932Z,12.50
2022-09-15T00:29:00.077Z,14.57
2022-09-15T00:29:31.609Z,13.07
2022-09-15T00:30:04.501Z,11.63
2022-09-15T00:30:47.599Z,10.80
2022-09-15T00:31:22.532Z,12.60
2022-09-15T00:31:54.121Z,13.68
2022-09-15T00:32:25.868Z,12.60
2022-09-15T00:32:57.377Z,13.90
2022-09-15T00:33:28.913Z,14.27
2022-09-15T00:34:05.037Z,13.83
2022-09-15T00:34:36.585Z,13.15
2022-09-15T00:35:08.510Z,15.43
2022-09-15T00:35:41.439Z,12.75
2022-09-15T00:36:14.444Z,13.05
2022-09-15T00:36:46.015Z,14.80
2022-09-15T00:37:18.168Z,12.43
2022-09-15T00:37:49.667Z,14.43
2022-09-15T00:38:21.249Z,13.55
2022-09-15T00:38:52.839Z,13.40
2022-09-15T00:39:24.493Z,12.83
2022-09-15T00:39:56.051Z,14.98
2022-09-15T00:40:27.676Z,12.25
2022-09-15T00:41:00.464Z,12.52
2022-09-15T00:41:32.193Z,11.63
2022-09-15T00:42:04.205Z,11.38
2022-09-15T00:42:35.731Z,13.18
2022-09-15T00:43:10.155Z,14.10
2022-09-15T00:44:04.165Z,13.48
2022-09-15T00:44:35.625Z,12.57
2022-09-15T00:45:14.439Z,11.90
2022-09-15T00:45:46.143Z,12.02
2022-09-15T00:46:23.883Z,14.77
2022-09-15T00:47:17.822Z,11.27
2022-09-15T00:47:49.189Z,10.45
2022-09-15T00:48:21.988Z,12.80
2022-09-15T00:49:26.223Z,11.57
2022-09-15T00:50:03.199Z,12.63
2022-09-15T00:50:36.199Z,13.23
2022-09-15T00:51:09.717Z,10.60
2022-09-15T00:51:45.337Z,11.27
2022-09-15T00:52:51.586Z,10.57
2022-09-15T00:53:24.925Z,10.27
2022-09-15T00:53:57.265Z,11.95
2022-09-15T00:54:49.716Z,10.45
2022-09-15T00:55:28.300Z,12.00
2022-09-15T00:56:02.723Z,10.20
2022-09-15T00:56:36.393Z,9.57
2022-09-15T00:57:12.948Z,10.63
2022-09-15T00:58:11.861Z,12.15
2022-09-15T00:58:48.522Z,14.20
2022-09-15T00:59:24.265Z,13.05
2022-09-15T00:59:57.689Z,9.73
2022-09-15T01:00:29.347Z,11.40
2022-09-15T01:01:03.380Z,11.32
2022-09-15T01:01:35.638Z,10.35
2022-09-15T01:02:21.149Z,11.35
2022-09-15T01:02:53.248Z,10.57
2022-09-15T01:03:26.359Z,12.68
2022-09-15T01:03:58.309Z,10.77
2022-09-15T01:04:30.056Z,9.77
2022-09-15T01:05:05.459Z,10.73
2022-09-15T01:05:42.725Z,11.32
2022-09-15T01:06:21.749Z,11.75
2022-09-15T01:06:58.567Z,11.70
2022-09-15T01:07:39.454Z,9.30
2022-09-15T01:08:20.862Z,10.63
2022-09-15T01:09:01.636Z,10.40
2022-09-15T01:09:49.893Z,11.82
2022-09-15T01:10:47.705Z,11.60
2022-09-15T01:11:19.531Z,9.67
2022-09-15T01:11:51.187Z,9.98
2022-09-15T01:12:25.053Z,10.98
2022-09-15T01:13:02.887Z,10.80
2022-09-15T01:13:34.393Z,10.48
2022-09-15T01:14:05.909Z,11.45
2022-09-15T01:14:37.445Z,9.75
2022-09-15T01:15:09.772Z,11.65
2022-09-15T01:16:03.903Z,9.85
2022-09-15T01:17:08.028Z,10.07
2022-09-15T01:17:51.786Z,9.00
2022-09-15T01:18:53.289Z,9.68
2022-09-15T01:20:16.074Z,9.85
2022-09-15T01:20:57.605Z,9.75
2022-09-15T01:21:29.094Z,10.60
2022-09-15T01:22:03.441Z,10.82
2022-09-15T01:22:49.643Z,11.38
2022-09-15T01:23:21.147Z,9.77
2022-09-15T01:23:58.839Z,11.43
2022-09-15T01:24:51.185Z,9.85
2022-09-15T01:25:28.305Z,9.97
2022-09-15T01:26:14.913Z,9.27
2022-09-15T01:27:37.589Z,9.35
2022-09-15T01:28:39.872Z,9.55
2022-09-15T01:29:29.802Z,9.50
2022-09-15T01:30:23.918Z,10.90
2022-09-15T01:31:10.853Z,11.10
2022-09-15T01:32:10.317Z,9.40
2022-09-15T01:33:05.955Z,9.73
2022-09-15T01:33:42.876Z,9.27
2022-09-15T01:34:18.308Z,10.53
2022-09-15T01:35:02.598Z,9.73
2022-09-15T01:35:52.745Z,8.95
2022-09-15T01:36:50.589Z,9.35
2022-09-15T01:37:29.595Z,11.23
2022-09-15T01:38:39.881Z,9.70
2022-09-15T01:39:16.897Z,8.85
2022-09-15T01:39:52.733Z,9.65
2022-09-15T01:40:28.730Z,8.63
2022-09-15T01:41:06.766Z,9.80
2022-09-15T01:41:52.233Z,9.90
2022-09-15T01:42:25.510Z,10.02
2022-09-15T01:42:59.511Z,8.63
2022-09-15T01:43:34.837Z,8.50
2022-09-15T01:44:13.694Z,9.52
2022-09-15T01:44:51.813Z,10.75
2022-09-15T01:45:31.159Z,12.80
2022-09-15T01:46:03.751Z,9.48
2022-09-15T01:46:40.562Z,10.00
2022-09-15T01:47:16.913Z,9.50
2022-09-15T01:47:52.178Z,9.97
2022-09-15T01:48:27.401Z,9.48
2022-09-15T01:49:02.024Z,8.55
2022-09-15T01:49:51.305Z,10.00
2022-09-15T01:50:28.337Z,9.25
2022-09-15T01:51:02.969Z,11.23
2022-09-15T01:51:36.884Z,9.55
2022-09-15T01:52:08.645Z,9.27
2022-09-15T01:52:44.871Z,10.77
2022-09-15T01:53:20.973Z,10.73
2022-09-15T01:53:54.621Z,10.03
2022-09-15T01:54:32.921Z,9.13
2022-09-15T01:55:12.950Z,9.65
2022-09-15T01:56:08.737Z,10.98
2022-09-15T01:56:41.957Z,8.55
2022-09-15T01:57:13.578Z,9.48
2022-09-15T01:57:45.498Z,9.52
2022-09-15T01:58:17.043Z,11.23
2022-09-15T01:58:51.061Z,10.40
2022-09-15T01:59:22.875Z,8.05
2022-09-15T01:59:56.175Z,9.90
2022-09-15T02:01:32.112Z,9.05
2022-09-15T02:02:42.599Z,10.73
2022-09-15T02:03:32.104Z,8.13
2022-09-15T02:04:12.814Z,9.43
2022-09-15T02:04:59.515Z,8.52
2022-09-15T02:05:36.960Z,9.13
2022-09-15T02:06:16.927Z,9.30
2022-09-15T02:06:58.458Z,8.10
2022-09-15T02:07:51.957Z,10.33
2022-09-15T02:08:31.552Z,8.50
2022-09-15T02:09:28.090Z,9.13
2022-09-15T02:10:11.502Z,8.98
2022-09-15T02:10:48.852Z,8.27
2022-09-15T02:11:26.551Z,11.15
2022-09-15T02:12:11.026Z,9.63
2022-09-15T02:12:50.657Z,12.27
2022-09-15T02:13:39.160Z,9.40
2022-09-15T02:14:17.376Z,8.57
2022-09-15T02:15:03.467Z,8.47
2022-09-15T02:15:48.117Z,9.50
2022-09-15T02:16:22.951Z,9.02
2022-09-15T02:16:54.723Z,8.57
2022-09-15T02:17:29.202Z,8.13
2022-09-15T02:18:05.850Z,8.98
2022-09-15T02:19:08.857Z,8.52
2022-09-15T02:19:47.503Z,8.95
2022-09-15T02:20:33.079Z,8.07
2022-09-15T02:21:10.922Z,9.55
2022-09-15T02:21:54.865Z,9.73
2022-09-15T02:22:31.479Z,9.00
2022-09-15T02:23:16.081Z,8.98
2022-09-15T02:23:51.222Z,8.13
2022-09-15T02:24:28.821Z,9.10
2022-09-15T02:25:05.763Z,7.88
2022-09-15T02:25:51.598Z,7.85
2022-09-15T02:26:27.788Z,7.95
2022-09-15T02:27:01.781Z,8.10
2022-09-15T02:27:38.919Z,8.07
2022-09-15T02:28:12.977Z,10.17
2022-09-15T02:28:47.093Z,9.75
2022-09-15T02:29:20.783Z,8.68
2022-09-15T02:29:56.603Z,9.15
2022-09-15T02:30:29.521Z,7.85
2022-09-15T02:31:03.837Z,7.97
2022-09-15T02:31:40.591Z,7.63
2022-09-15T02:32:13.822Z,7.90
2022-09-15T02:32:54.410Z,7.88
2022-09-15T02:33:31.183Z,7.75
2022-09-15T02:34:09.159Z,6.60
2022-09-15T02:34:47.303Z,7.35
2022-09-15T02:35:19.341Z,8.43
2022-09-15T02:35:52.673Z,7.25
2022-09-15T02:36:26.783Z,8.02
2022-09-15T02:36:59.158Z,8.68
2022-09-15T02:37:31.052Z,7.28
2022-09-15T02:38:06.502Z,6.55
2022-09-15T02:38:44.003Z,7.63
2022-09-15T02:39:19.499Z,6.88
2022-09-15T02:39:58.072Z,7.70
2022-09-15T02:40:30.466Z,7.97
2022-09-15T02:41:02.894Z,6.78
2022-09-15T02:41:37.272Z,8.95
2022-09-15T02:42:10.355Z,6.75
2022-09-15T02:42:53.392Z,7.05
2022-09-15T02:43:24.909Z,7.18
2022-09-15T02:43:56.510Z,6.72
2022-09-15T02:44:30.645Z,7.40
2022-09-15T02:45:02.658Z,7.72
2022-09-15T02:45:34.303Z,8.23
2022-09-15T02:46:06.087Z,7.80
2022-09-15T02:46:39.160Z,8.30
2022-09-15T02:47:10.719Z,8.63
2022-09-15T02:47:42.223Z,7.03
2022-09-15T02:48:13.831Z,8.85
2022-09-15T02:48:45.359Z,7.28
2022-09-15T02:49:17.044Z,8.10
2022-09-15T02:49:48.524Z,7.03
2022-09-15T02:50:20.708Z,7.40
2022-09-15T02:50:52.251Z,8.17
2022-09-15T02:51:23.918Z,7.20
2022-09-15T02:51:55.559Z,8.57
2022-09-15T02:52:27.104Z,7.97
2022-09-15T02:52:58.596Z,7.10
2022-09-15T02:53:30.097Z,8.23
2022-09-15T02:54:01.777Z,8.07
2022-09-15T02:54:33.365Z,6.43
2022-09-15T02:55:05.249Z,7.70
2022-09-15T02:55:36.798Z,9.18
2022-09-15T02:56:08.373Z,7.03
2022-09-15T02:56:39.921Z,7.38
2022-09-15T02:57:11.765Z,7.45
2022-09-15T02:57:43.349Z,7.45
2022-09-15T02:58:14.850Z,7.35
2022-09-15T02:58:46.538Z,7.40
2022-09-15T02:59:18.061Z,7.35
2022-09-15T03:00:08.012Z,7.15
2022-09-15T03:00:39.579Z,7.55
2022-09-15T03:01:15.687Z,7.72
2022-09-15T03:01:47.371Z,6.20
2022-09-15T03:02:20.637Z,6.55
2022-09-15T03:02:54.393Z,7.80
2022-09-15T03:03:25.920Z,7.18
2022-09-15T03:03:58.042Z,7.80
2022-09-15T03:04:29.571Z,7.03
2022-09-15T03:05:01.119Z,7.55
2022-09-15T03:05:32.651Z,7.65
2022-09-15T03:06:21.302Z,8.25
2022-09-15T03:06:52.784Z,9.27
2022-09-15T03:07:24.971Z,7.83
2022-09-15T03:07:57.428Z,8.63
2022-09-15T03:08:28.911Z,7.35
2022-09-15T03:09:03.888Z,8.13
2022-09-15T03:09:35.390Z,8.50
2022-09-15T03:10:08.578Z,10.65
2022-09-15T03:10:40.236Z,7.38
2022-09-15T03:11:12.183Z,8.25
2022-09-15T03:11:43.675Z,7.47
2022-09-15T03:12:15.194Z,8.00
2022-09-15T03:12:49.593Z,7.60
2022-09-15T03:13:21.228Z,8.15
2022-09-15T03:13:57.405Z,9.55
2022-09-15T03:14:29.700Z,7.60
2022-09-15T03:15:01.196Z,8.38
2022-09-15T03:15:33.371Z,7.50
2022-09-15T03:16:13.005Z,7.10
2022-09-15T03:16:44.549Z,8.10
2022-09-15T03:17:16.855Z,7.72
2022-09-15T03:17:49.103Z,7.63
2022-09-15T03:18:20.594Z,7.83
2022-09-15T03:18:54.706Z,7.40
2022-09-15T03:19:26.762Z,7.50
2022-09-15T03:19:58.258Z,7.22
2022-09-15T03:20:30.326Z,6.93
2022-09-15T03:21:02.149Z,7.18
2022-09-15T03:21:33.722Z,7.43
2022-09-15T03:22:05.233Z,9.73
2022-09-15T03:22:36.934Z,8.68
2022-09-15T03:23:08.767Z,8.70
2022-09-15T03:23:41.167Z,6.03
2022-09-15T03:24:15.344Z,7.28
2022-09-15T03:24:46.844Z,7.28
2022-09-15T03:25:18.669Z,7.13
2022-09-15T03:25:50.164Z,7.70
2022-09-15T03:26:21.701Z,8.32
2022-09-15T03:26:53.471Z,7.50
2022-09-15T03:27:25.015Z,12.80
2022-09-15T03:27:56.584Z,7.28
2022-09-15T03:28:28.409Z,6.57
2022-09-15T03:28:59.891Z,6.03
2022-09-15T03:29:31.470Z,7.13
2022-09-15T03:30:05.147Z,7.88
2022-09-15T03:30:36.723Z,6.75
2022-09-15T03:31:09.574Z,7.35
2022-09-15T03:31:41.303Z,7.82
2022-09-15T03:32:12.891Z,7.60
2022-09-15T03:32:44.477Z,6.10
2022-09-15T03:33:15.986Z,7.38
2022-09-15T03:33:47.864Z,5.85
2022-09-15T03:34:19.382Z,8.23
2022-09-15T03:34:52.447Z,8.13
2022-09-15T03:35:26.736Z,5.50
2022-09-15T03:35:58.640Z,6.57
2022-09-15T03:36:30.938Z,6.13
2022-09-15T03:37:02.500Z,7.40
2022-09-15T03:37:34.690Z,6.35
2022-09-15T03:38:06.570Z,6.78
2022-09-15T03:38:38.074Z,6.57
2022-09-15T03:39:11.760Z,6.72
2022-09-15T03:39:43.390Z,8.37
2022-09-15T03:40:15.039Z,7.25
2022-09-15T03:40:58.275Z,6.93
2022-09-15T03:41:29.976Z,7.05
2022-09-15T03:42:01.481Z,6.80
2022-09-15T03:42:33.033Z,7.97
2022-09-15T03:43:04.534Z,11.23
2022-09-15T03:43:36.766Z,6.85
2022-09-15T03:44:08.291Z,6.35
2022-09-15T03:44:39.873Z,6.35
2022-09-15T03:45:11.389Z,6.53
2022-09-15T03:45:42.940Z,7.32
2022-09-15T03:46:14.660Z,5.85
2022-09-15T03:46:46.294Z,7.57
2022-09-15T03:47:17.844Z,7.65
2022-09-15T03:47:49.354Z,8.55
2022-09-15T03:48:21.038Z,6.63
2022-09-15T03:48:52.538Z,7.82
2022-09-15T03:49:25.468Z,6.50
2022-09-15T03:49:56.979Z,7.72
2022-09-15T03:50:28.480Z,7.57
2022-09-15T03:51:00.030Z,7.55
2022-09-15T03:51:31.539Z,7.82
2022-09-15T03:52:03.402Z,7.45
2022-09-15T03:52:34.934Z,8.48
2022-09-15T03:53:06.426Z,7.97
2022-09-15T03:53:39.846Z,8.48
2022-09-15T03:54:11.752Z,7.50
2022-09-15T03:54:43.862Z,7.20
2022-09-15T03:55:15.410Z,6.82
2022-09-15T03:55:48.394Z,8.30
2022-09-15T03:56:26.684Z,7.57
2022-09-15T03:56:58.206Z,6.50
2022-09-15T03:57:29.710Z,8.57
2022-09-15T03:58:01.219Z,8.07
2022-09-15T03:58:32.731Z,6.72
2022-09-15T03:59:06.479Z,7.68
2022-09-15T03:59:38.014Z,8.30
2022-09-15T04:00:10.185Z,6.45
2022-09-15T04:00:41.909Z,7.15
2022-09-15T04:01:13.917Z,7.67
2022-09-15T04:01:46.508Z,7.47
2022-09-15T04:02:19.208Z,7.63
2022-09-15T04:02:50.788Z,7.93
2022-09-15T04:03:23.046Z,8.10
2022-09-15T04:03:55.122Z,7.90
2022-09-15T04:04:26.764Z,8.18
2022-09-15T04:04:58.282Z,8.88
2022-09-15T04:05:29.962Z,8.60
2022-09-15T04:06:01.486Z,7.50
2022-09-15T04:06:33.143Z,9.30
2022-09-15T04:07:04.654Z,8.57
2022-09-15T04:07:36.355Z,6.35
2022-09-15T04:08:12.069Z,7.15
2022-09-15T04:08:44.058Z,6.30
2022-09-15T04:09:15.857Z,7.20
2022-09-15T04:09:47.401Z,7.85
2022-09-15T04:10:18.978Z,6.70
2022-09-15T04:10:50.548Z,8.27
2022-09-15T04:11:22.845Z,6.75
2022-09-15T04:11:54.362Z,6.93
2022-09-15T04:12:25.870Z,7.15
2022-09-15T04:12:57.539Z,7.07
2022-09-15T04:13:29.076Z,6.00
2022-09-15T04:14:00.620Z,6.22
2022-09-15T04:14:32.218Z,6.45
2022-09-15T04:15:04.495Z,7.68
2022-09-15T04:15:36.016Z,6.88
2022-09-15T04:16:10.651Z,6.18
2022-09-15T04:16:42.247Z,6.45
2022-09-15T04:17:15.516Z,6.63
2022-09-15T04:17:47.734Z,6.30
2022-09-15T04:18:19.257Z,5.45
2022-09-15T04:18:52.137Z,5.50
2022-09-15T04:19:23.624Z,5.00
2022-09-15T04:19:55.616Z,5.65
2022-09-15T04:20:27.315Z,5.60
2022-09-15T04:21:05.607Z,4.75
2022-09-15T04:21:37.171Z,6.05
2022-09-15T04:22:08.811Z,7.68
2022-09-15T04:22:40.564Z,6.00
2022-09-15T04:23:12.050Z,5.28
2022-09-15T04:23:44.351Z,5.47
2022-09-15T04:24:15.935Z,7.70
2022-09-15T04:24:50.782Z,6.55
2022-09-15T04:25:22.339Z,6.55
2022-09-15T04:25:58.226Z,5.38
2022-09-15T04:26:31.772Z,6.70
2022-09-15T04:27:03.452Z,6.68
2022-09-15T04:27:36.320Z,6.00
2022-09-15T04:28:07.812Z,7.67
2022-09-15T04:28:40.611Z,6.15
2022-09-15T04:29:15.765Z,5.38
2022-09-15T04:29:51.149Z,8.82
2022-09-15T04:30:23.034Z,5.88
2022-09-15T04:31:03.846Z,6.50
2022-09-15T04:31:35.465Z,7.57
2022-09-15T04:32:07.359Z,7.97
2022-09-15T04:32:38.919Z,9.45
2022-09-15T04:33:10.425Z,6.28
2022-09-15T04:33:43.402Z,7.93
2022-09-15T04:34:14.896Z,6.35
2022-09-15T04:34:46.767Z,6.97
2022-09-15T04:35:18.266Z,7.68
2022-09-15T04:35:49.812Z,6.40
2022-09-15T04:36:24.454Z,8.35
2022-09-15T04:36:55.959Z,8.38
2022-09-15T04:37:27.516Z,7.95
2022-09-15T04:38:00.139Z,8.10
2022-09-15T04:38:31.856Z,7.45
2022-09-15T04:39:06.556Z,8.90
2022-09-15T04:39:38.726Z,8.60
2022-09-15T04:40:11.358Z,6.95
2022-09-15T04:40:43.016Z,8.45
2022-09-15T04:41:15.342Z,8.68
2022-09-15T04:41:46.924Z,7.65
2022-09-15T04:42:20.614Z,7.20
2022-09-15T04:42:52.814Z,6.10
2022-09-15T04:43:25.880Z,8.80
2022-09-15T04:43:57.509Z,6.60
2022-09-15T04:44:29.143Z,6.23
2022-09-15T04:45:00.667Z,7.30
2022-09-15T04:45:33.408Z,7.50
2022-09-15T04:46:05.373Z,8.50
2022-09-15T04:46:37.010Z,8.10
2022-09-15T04:47:08.536Z,8.30
2022-09-15T04:47:40.116Z,8.00
2022-09-15T04:48:11.672Z,7.82
2022-09-15T04:48:44.007Z,9.50
2022-09-15T04:49:15.523Z,8.93
2022-09-15T04:49:47.104Z,10.30
2022-09-15T04:50:19.075Z,6.70
2022-09-15T04:50:51.019Z,7.85
2022-09-15T04:51:23.460Z,8.00
2022-09-15T04:51:55.215Z,9.20
2022-09-15T04:52:26.703Z,7.70
2022-09-15T04:52:58.193Z,7.70
2022-09-15T04:53:30.452Z,10.45
2022-09-15T04:54:02.052Z,7.88
2022-09-15T04:54:34.685Z,9.23
2022-09-15T04:55:06.368Z,8.30
2022-09-15T04:55:38.449Z,6.85
2022-09-15T04:56:13.015Z,7.05
2022-09-15T04:56:45.628Z,10.27
2022-09-15T04:57:17.138Z,8.43
2022-09-15T04:57:48.763Z,8.55
2022-09-15T04:58:20.260Z,8.32
2022-09-15T04:58:56.486Z,8.98
2022-09-15T04:59:31.140Z,8.40
2022-09-15T05:00:06.465Z,6.80
2022-09-15T05:00:43.547Z,7.30
2022-09-15T05:01:17.856Z,9.63
2022-09-15T05:01:49.467Z,6.82
2022-09-15T05:02:21.259Z,9.40
2022-09-15T05:02:53.632Z,8.52
2022-09-15T05:03:25.231Z,8.20
2022-09-15T05:03:57.169Z,9.45
2022-09-15T05:04:28.700Z,8.85
2022-09-15T05:05:00.239Z,8.15
2022-09-15T05:05:34.016Z,7.55
2022-09-15T05:06:07.442Z,8.13
2022-09-15T05:06:39.206Z,9.38
2022-09-15T05:07:10.878Z,8.93
2022-09-15T05:07:42.413Z,8.95
2022-09-15T05:08:13.947Z,8.32
2022-09-15T05:08:49.694Z,6.53
2022-09-15T05:09:21.371Z,9.70
2022-09-15T05:09:53.237Z,9.60
2022-09-15T05:10:24.763Z,7.78
2022-09-15T05:11:04.987Z,7.68
2022-09-15T05:11:36.496Z,8.67
2022-09-15T05:12:08.035Z,9.40
2022-09-15T05:12:39.591Z,7.78
2022-09-15T05:13:11.133Z,7.53
2022-09-15T05:13:43.291Z,8.63
2022-09-15T05:14:14.905Z,10.50
2022-09-15T05:14:46.411Z,7.72
2022-09-15T05:15:18.102Z,10.00
2022-09-15T05:15:49.638Z,9.38
2022-09-15T05:16:23.454Z,8.70
2022-09-15T05:16:55.137Z,8.47
2022-09-15T05:17:26.934Z,7.25
2022-09-15T05:17:58.576Z,9.35
2022-09-15T05:18:30.631Z,8.57
2022-09-15T05:19:04.636Z,9.85
2022-09-15T05:19:36.209Z,9.43
2022-09-15T05:20:08.081Z,7.65
2022-09-15T05:20:39.570Z,9.90
2022-09-15T05:21:13.327Z,8.23
2022-09-15T05:21:44.926Z,7.90
2022-09-15T05:22:16.421Z,8.87
2022-09-15T05:22:47.964Z,8.30
2022-09-15T05:23:19.443Z,8.93
2022-09-15T05:23:52.045Z,8.40
2022-09-15T05:24:23.769Z,9.63
2022-09-15T05:24:55.281Z,10.30
2022-09-15T05:25:26.845Z,10.18
2022-09-15T05:25:59.697Z,12.68
2022-09-15T05:26:31.746Z,7.88
2022-09-15T05:27:03.421Z,8.05
2022-09-15T05:27:34.917Z,9.37
2022-09-15T05:28:06.691Z,10.25
2022-09-15T05:28:38.817Z,8.57
2022-09-15T05:29:10.382Z,10.60
2022-09-15T05:29:41.891Z,8.60
2022-09-15T05:30:36.870Z,8.77
2022-09-15T05:31:17.893Z,10.05
2022-09-15T05:31:49.502Z,11.25
2022-09-15T05:32:21.214Z,7.43
2022-09-15T05:32:53.542Z,8.98
2022-09-15T05:33:25.138Z,7.40
2022-09-15T05:33:57.011Z,9.70
2022-09-15T05:34:28.515Z,8.45
2022-09-15T05:35:00.014Z,7.93
2022-09-15T05:35:31.506Z,7.82
2022-09-15T05:36:03.961Z,7.95
2022-09-15T05:36:35.479Z,11.18
2022-09-15T05:37:07.027Z,9.73
2022-09-15T05:37:38.509Z,9.23
2022-09-15T05:38:10.001Z,7.68
2022-09-15T05:38:41.864Z,8.70
2022-09-15T05:39:13.510Z,7.28
2022-09-15T05:39:45.487Z,7.80
2022-09-15T05:40:17.258Z,9.52
2022-09-15T05:40:49.113Z,6.82
2022-09-15T05:41:21.030Z,10.68
2022-09-15T05:41:52.526Z,7.85
2022-09-15T05:42:24.129Z,7.45
2022-09-15T05:42:55.639Z,8.23
2022-09-15T05:43:30.813Z,8.43
2022-09-15T05:44:02.673Z,6.87
2022-09-15T05:44:34.533Z,8.48
2022-09-15T05:45:06.719Z,7.80
2022-09-15T05:45:38.281Z,11.07
2022-09-15T05:46:10.537Z,7.47
2022-09-15T05:46:42.129Z,7.85
2022-09-15T05:47:13.750Z,11.88
2022-09-15T05:47:45.250Z,8.77
2022-09-15T05:48:16.749Z,10.55
2022-09-15T05:48:48.305Z,8.20
2022-09-15T05:49:19.849Z,9.83
2022-09-15T05:49:51.333Z,11.20
2022-09-15T05:50:23.074Z,8.35
2022-09-15T05:50:55.780Z,6.90
2022-09-15T05:51:27.766Z,9.95
2022-09-15T05:51:59.402Z,7.18
2022-09-15T05:52:30.896Z,9.77
2022-09-15T05:53:02.727Z,8.73
2022-09-15T05:53:35.683Z,11.48
2022-09-15T05:54:07.546Z,9.68
2022-09-15T05:54:39.078Z,9.17
2022-09-15T05:55:10.633Z,7.85
2022-09-15T05:55:42.434Z,8.98
2022-09-15T05:56:15.856Z,9.63
2022-09-15T05:56:50.077Z,8.63
2022-09-15T05:57:21.585Z,10.73
2022-09-15T05:57:53.734Z,11.55
2022-09-15T05:58:26.296Z,14.35
2022-09-15T05:58:57.863Z,9.23
2022-09-15T05:59:29.374Z,9.50
2022-09-15T06:00:01.055Z,11.77
2022-09-15T06:00:33.563Z,8.80
2022-09-15T06:01:07.964Z,6.70
2022-09-15T06:01:39.755Z,10.55
2022-09-15T06:02:11.801Z,7.90
2022-09-15T06:02:43.484Z,9.57
2022-09-15T06:03:16.244Z,7.18
2022-09-15T06:03:48.464Z,6.97
2022-09-15T06:04:19.953Z,7.80
2022-09-15T06:04:51.702Z,10.27
2022-09-15T06:05:23.281Z,7.37
2022-09-15T06:06:02.225Z,8.07
2022-09-15T06:06:33.831Z,8.63
2022-09-15T06:07:05.366Z,8.00
2022-09-15T06:07:36.933Z,8.43
2022-09-15T06:08:08.600Z,8.63
2022-09-15T06:08:47.982Z,8.80
2022-09-15T06:09:19.842Z,6.65
2022-09-15T06:09:51.392Z,7.45
2022-09-15T06:10:24.949Z,8.23
2022-09-15T06:11:04.247Z,8.73
2022-09-15T06:11:35.882Z,10.05
2022-09-15T06:12:07.548Z,7.47
2022-09-15T06:12:39.065Z,7.78
2022-09-15T06:13:10.647Z,7.20
2022-09-15T06:13:42.770Z,7.78
2022-09-15T06:14:14.434Z,7.43
2022-09-15T06:14:50.367Z,10.20
2022-09-15T06:15:22.926Z,8.55
2022-09-15T06:15:54.560Z,6.85
2022-09-15T06:16:26.781Z,7.00
2022-09-15T06:16:58.390Z,9.13
2022-09-15T06:17:32.638Z,6.85
2022-09-15T06:18:04.199Z,6.55
2022-09-15T06:18:37.314Z,8.25
2022-09-15T06:19:08.906Z,8.00
2022-09-15T06:19:40.539Z,7.57
2022-09-15T06:20:12.300Z,7.65
2022-09-15T06:20:43.836Z,7.32
2022-09-15T06:21:20.365Z,7.57
2022-09-15T06:21:52.236Z,7.93
2022-09-15T06:22:24.185Z,10.50
2022-09-15T06:22:56.561Z,8.27
2022-09-15T06:23:28.174Z,7.15
2022-09-15T06:24:01.976Z,7.95
2022-09-15T06:24:33.467Z,7.15
2022-09-15T06:25:05.962Z,8.50
2022-09-15T06:25:37.480Z,9.23
2022-09-15T06:26:14.666Z,7.13
2022-09-15T06:26:46.186Z,8.95
2022-09-15T06:27:17.730Z,8.40
2022-09-15T06:27:50.232Z,6.65
2022-09-15T06:28:21.853Z,9.32
2022-09-15T06:28:55.983Z,9.02
2022-09-15T06:29:28.800Z,12.50
2022-09-15T06:30:00.312Z,7.72
2022-09-15T06:30:31.839Z,6.35
2022-09-15T06:31:03.899Z,7.32
2022-09-15T06:31:35.882Z,7.25
2022-09-15T06:32:07.474Z,7.53
2022-09-15T06:32:39.182Z,8.93
2022-09-15T06:33:10.684Z,9.68
2022-09-15T06:33:44.181Z,6.35
2022-09-15T06:34:15.832Z,8.45
2022-09-15T06:34:47.676Z,10.38
2022-09-15T06:35:19.227Z,10.07
2022-09-15T06:35:50.712Z,8.68
2022-09-15T06:36:24.754Z,9.30
2022-09-15T06:36:56.266Z,7.35
2022-09-15T06:37:27.758Z,7.57
2022-09-15T06:37:59.289Z,6.83
2022-09-15T06:38:31.247Z,6.63
2022-09-15T06:39:03.088Z,7.70
2022-09-15T06:39:35.205Z,9.43
2022-09-15T06:40:07.989Z,7.70
2022-09-15T06:40:39.521Z,9.38
2022-09-15T06:41:12.134Z,6.63
2022-09-15T06:42:01.162Z,9.00
2022-09-15T06:42:34.043Z,11.27
2022-09-15T06:43:05.679Z,6.95
2022-09-15T06:43:37.947Z,8.33
2022-09-15T06:44:10.039Z,9.35
2022-09-15T06:44:41.569Z,8.85
2022-09-15T06:45:13.065Z,7.07
2022-09-15T06:45:44.601Z,8.00
2022-09-15T06:46:21.830Z,9.00
2022-09-15T06:46:53.697Z,7.75
2022-09-15T06:47:25.214Z,7.07
2022-09-15T06:48:20.256Z,6.22
2022-09-15T06:48:48.983Z,7.95
2022-09-15T06:49:21.776Z,6.87
2022-09-15T06:49:54.795Z,7.35
2022-09-15T06:50:26.377Z,8.18
2022-09-15T06:50:58.406Z,7.68
2022-09-15T06:51:35.288Z,8.48
2022-09-15T06:52:06.849Z,6.72
2022-09-15T06:52:38.363Z,6.30
2022-09-15T06:53:10.358Z,7.88
2022-09-15T06:53:41.867Z,7.57
2022-09-15T06:54:15.982Z,6.32
2022-09-15T06:54:47.514Z,7.57
2022-09-15T06:55:19.413Z,8.05
2022-09-15T06:55:50.957Z,7.60
2022-09-15T06:56:23.896Z,8.88
2022-09-15T06:56:55.438Z,8.02
2022-09-15T06:57:26.952Z,7.95
2022-09-15T06:57:58.875Z,6.60
2022-09-15T06:58:31.095Z,7.45
2022-09-15T06:59:03.922Z,7.97
2022-09-15T06:59:35.435Z,7.10
2022-09-15T07:00:07.885Z,8.70
2022-09-15T07:00:39.489Z,7.63
2022-09-15T07:01:13.810Z,8.13
2022-09-15T07:01:45.313Z,12.20
2022-09-15T07:02:16.934Z,9.73
2022-09-15T07:02:51.835Z,13.70
2022-09-15T07:03:23.441Z,13.00
2022-09-15T07:03:56.569Z,12.25
2022-09-15T07:04:28.075Z,9.90
2022-09-15T07:04:59.579Z,9.07
2022-09-15T07:05:31.131Z,7.07
2022-09-15T07:06:04.199Z,7.78
2022-09-15T07:06:37.902Z,7.60
2022-09-15T07:07:09.561Z,7.55
2022-09-15T07:07:41.147Z,6.47
2022-09-15T07:08:12.679Z,5.65
2022-09-15T07:08:45.367Z,9.85
2022-09-15T07:09:17.134Z,6.88
2022-09-15T07:09:49.275Z,5.68
2022-09-15T07:10:20.881Z,7.70
2022-09-15T07:10:52.469Z,7.50
2022-09-15T07:11:24.722Z,8.27
2022-09-15T07:11:56.322Z,7.47
2022-09-15T07:12:27.887Z,5.80
2022-09-15T07:13:01.991Z,6.57
2022-09-15T07:13:33.531Z,7.82
2022-09-15T07:14:05.245Z,5.82
2022-09-15T07:14:36.841Z,8.40
2022-09-15T07:15:09.197Z,7.32
2022-09-15T07:15:40.742Z,8.65
2022-09-15T07:16:13.143Z,6.83
2022-09-15T07:16:44.788Z,6.38
2022-09-15T07:17:16.403Z,8.70
2022-09-15T07:17:47.909Z,6.30
2022-09-15T07:18:21.803Z,7.50
2022-09-15T07:18:56.907Z,5.50
2022-09-15T07:19:28.468Z,7.35
2022-09-15T07:20:01.222Z,6.28
2022-09-15T07:20:33.214Z,5.82
2022-09-15T07:21:11.410Z,8.40
2022-09-15T07:21:42.945Z,5.73
2022-09-15T07:22:14.530Z,5.18
2022-09-15T07:22:46.069Z,6.55
2022-09-15T07:23:18.647Z,7.43
2022-09-15T07:23:50.626Z,10.32
2022-09-15T07:24:22.159Z,8.43
2022-09-15T07:24:53.662Z,7.50
2022-09-15T07:25:25.265Z,6.45
2022-09-15T07:26:14.384Z,7.60
2022-09-15T07:26:45.994Z,5.65
2022-09-15T07:27:17.551Z,6.97
2022-09-15T07:27:49.081Z,6.82
2022-09-15T07:28:20.600Z,5.57
2022-09-15T07:28:55.686Z,7.50
2022-09-15T07:29:27.191Z,7.78
2022-09-15T07:29:59.195Z,6.68
2022-09-15T07:30:30.777Z,6.03
2022-09-15T07:31:04.114Z,6.82
2022-09-15T07:31:38.562Z,5.82
2022-09-15T07:32:10.234Z,5.88
2022-09-15T07:32:41.803Z,6.03
2022-09-15T07:33:13.711Z,6.50